Time;durP1;ratioP1;P1;durP2;ratioP2;P2;SDS_P1;SDS_P2;PMS_P1;PMS_P2;Temp;Humidity;BMP_temperature;BMP_pressure;BME280_temperature;BME280_humidity;BME280_pressure;Samples;Min_cycle;Max_cycle;Signal;HPM_P1;HPM_P2
2023/09/03 00:01:21;;;;;;;21.53;12.63;;;;;16.20;101988.00;;;;5020554;28;20913;-72
2023/09/03 00:04:09;;;;;;;24.47;12.40;;;;;16.20;101985.00;;;;5023741;28;20249;-71
2023/09/03 00:06:55;;;;;;;24.20;13.77;;;;;16.20;101988.00;;;;5020630;28;20221;-72
2023/09/03 00:09:42;;;;;;;21.57;13.43;;;;;16.20;101988.00;;;;5019531;28;20226;-73
2023/09/03 00:12:28;;;;;;;20.60;12.73;;;;;16.10;101979.00;;;;5023613;28;20233;-72
2023/09/03 00:15:15;;;;;;;26.57;13.10;;;;;16.10;101978.00;;;;5016312;28;20233;-71
2023/09/03 00:18:01;;;;;;;23.33;12.17;;;;;16.10;101976.00;;;;5022035;28;20295;-73
2023/09/03 00:20:59;;;;;;;20.97;12.30;;;;;16.10;101982.00;;;;5018556;28;20229;-70
2023/09/03 00:23:46;;;;;;;19.17;12.30;;;;;16.10;101981.00;;;;5020184;28;20383;-71
2023/09/03 00:26:32;;;;;;;19.97;13.00;;;;;16.00;101980.00;;;;5019791;28;20302;-72
2023/09/03 00:29:18;;;;;;;22.13;13.77;;;;;16.10;101981.00;;;;5024339;28;20229;-72
2023/09/03 00:32:05;;;;;;;22.63;13.03;;;;;16.00;101986.00;;;;5022194;28;20237;-73
2023/09/03 00:34:51;;;;;;;19.97;12.70;;;;;16.00;101987.00;;;;5022593;28;20725;-72
2023/09/03 00:37:39;;;;;;;19.77;13.23;;;;;16.00;101992.00;;;;5025544;28;20241;-71
2023/09/03 00:40:25;;;;;;;25.77;13.83;;;;;16.00;101999.00;;;;5017507;28;20237;-74
2023/09/03 00:43:11;;;;;;;21.90;13.43;;;;;16.00;101996.00;;;;5024891;28;20240;-73
2023/09/03 00:46:01;;;;;;;23.67;13.90;;;;;16.10;102000.00;;;;5020372;28;20233;-72
2023/09/03 00:48:48;;;;;;;24.77;14.57;;;;;16.10;102008.00;;;;5020842;28;20229;-72
2023/09/03 00:51:36;;;;;;;23.43;13.13;;;;;16.10;102011.00;;;;5023866;28;20237;-70
2023/09/03 00:54:24;;;;;;;19.60;12.87;;;;;16.00;102024.00;;;;5022338;28;20228;-70
2023/09/03 00:57:11;;;;;;;22.73;13.13;;;;;16.00;102024.00;;;;5018623;28;20225;-72
2023/09/03 00:59:58;;;;;;;22.63;13.10;;;;;16.00;102029.00;;;;5018737;28;20598;-71
2023/09/03 01:02:47;;;;;;;24.17;12.90;;;;;15.90;102032.00;;;;5018479;28;20237;-68
2023/09/03 01:05:33;;;;;;;20.77;12.37;;;;;15.80;102034.00;;;;5016957;28;20788;-71
2023/09/03 01:08:20;;;;;;;21.17;13.03;;;;;15.80;102030.00;;;;5021006;28;20238;-71
2023/09/03 01:11:24;;;;;;;21.07;12.70;;;;;15.70;102022.00;;;;5023401;28;20271;-71
2023/09/03 01:14:19;;;;;;;23.37;11.70;;;;;15.70;102020.00;;;;5018386;28;20889;-71
2023/09/03 01:17:12;;;;;;;19.13;12.37;;;;;15.60;102008.00;;;;5013926;28;20237;-70
2023/09/03 01:20:06;;;;;;;18.37;12.23;;;;;15.60;102000.00;;;;5018834;28;20255;-71
2023/09/03 01:23:18;;;;;;;21.57;12.00;;;;;15.60;102004.00;;;;5024269;28;20287;-71
2023/09/03 01:26:33;;;;;;;20.03;12.50;;;;;15.60;102003.00;;;;5021600;28;20233;-74
2023/09/03 01:29:21;;;;;;;19.63;11.87;;;;;15.50;102008.00;;;;5018994;28;20236;-72
2023/09/03 01:32:10;;;;;;;19.53;11.90;;;;;15.50;102009.00;;;;5021881;28;20773;-74
2023/09/03 01:34:58;;;;;;;20.33;12.67;;;;;15.50;102014.00;;;;5017359;28;20228;-71
2023/09/03 01:37:45;;;;;;;20.03;12.17;;;;;15.40;102011.00;;;;5017772;28;20360;-72
2023/09/03 01:40:32;;;;;;;20.93;12.83;;;;;15.40;102006.00;;;;5014621;28;20280;-71
2023/09/03 01:43:18;;;;;;;19.77;12.20;;;;;15.40;102010.00;;;;5012505;28;20803;-74
2023/09/03 01:46:08;;;;;;;19.17;12.30;;;;;15.40;102014.00;;;;5020269;28;20231;-72
2023/09/03 01:49:05;;;;;;;20.93;12.87;;;;;15.50;102011.00;;;;5026244;28;20313;-72
2023/09/03 01:52:01;;;;;;;18.47;11.67;;;;;15.40;102008.00;;;;5022207;28;20593;-72
2023/09/03 01:54:49;;;;;;;20.57;12.60;;;;;15.40;102011.00;;;;5024104;28;20631;-72
2023/09/03 01:57:40;;;;;;;16.93;11.17;;;;;15.40;102009.00;;;;5022403;28;20299;-71
2023/09/03 02:00:27;;;;;;;23.00;12.57;;;;;15.30;102012.00;;;;5021776;28;20303;-73
2023/09/03 02:03:17;;;;;;;23.17;12.47;;;;;15.30;102009.00;;;;5024142;28;20235;-72
2023/09/03 02:06:06;;;;;;;20.83;12.60;;;;;15.30;102013.00;;;;5016701;28;20240;-74
2023/09/03 02:08:53;;;;;;;18.93;12.30;;;;;15.20;102018.00;;;;5016697;28;20238;-71
2023/09/03 02:11:39;;;;;;;21.37;12.73;;;;;15.20;102021.00;;;;5021856;28;20237;-71
2023/09/03 02:14:26;;;;;;;17.63;11.60;;;;;15.20;102022.00;;;;5023087;28;20242;-73
2023/09/03 02:17:14;;;;;;;21.00;11.97;;;;;15.10;102019.00;;;;5024106;28;20344;-71
2023/09/03 02:20:03;;;;;;;20.27;11.73;;;;;15.10;102016.00;;;;5024271;28;20721;-71
2023/09/03 02:22:49;;;;;;;21.33;12.13;;;;;15.10;102022.00;;;;5017214;28;20237;-72
2023/09/03 02:25:36;;;;;;;22.10;12.30;;;;;15.10;102030.00;;;;5009802;28;20356;-71
2023/09/03 02:28:22;;;;;;;18.83;11.93;;;;;15.10;102031.00;;;;5021207;28;20236;-72
2023/09/03 02:31:08;;;;;;;18.90;11.43;;;;;15.10;102036.00;;;;5018484;28;20301;-71
2023/09/03 02:33:55;;;;;;;21.93;12.47;;;;;15.10;102050.00;;;;5023924;28;20270;-71
2023/09/03 02:36:43;;;;;;;22.70;12.07;;;;;15.10;102052.00;;;;5023407;28;20334;-71
2023/09/03 02:39:29;;;;;;;20.87;12.13;;;;;15.10;102055.00;;;;5014210;28;20237;-72
2023/09/03 02:42:15;;;;;;;19.37;11.97;;;;;15.00;102034.00;;;;5023136;28;20883;-72
2023/09/03 02:45:04;;;;;;;19.60;12.07;;;;;15.00;102023.00;;;;5014058;28;20240;-74
2023/09/03 02:47:51;;;;;;;21.50;12.47;;;;;15.00;102019.00;;;;5016191;28;20392;-70
2023/09/03 02:50:37;;;;;;;17.67;11.63;;;;;15.00;102014.00;;;;5030634;28;20240;-71
2023/09/03 02:53:24;;;;;;;18.33;11.83;;;;;15.00;102023.00;;;;5022915;28;20245;-72
2023/09/03 02:56:11;;;;;;;21.97;11.77;;;;;14.90;102011.00;;;;5020951;28;20238;-72
2023/09/03 02:58:57;;;;;;;17.90;11.47;;;;;14.90;102007.00;;;;5009953;28;20321;-72
2023/09/03 03:01:44;;;;;;;18.10;11.67;;;;;14.90;102001.00;;;;5017744;28;20228;-72
2023/09/03 03:04:30;;;;;;;21.13;12.20;;;;;14.90;101986.00;;;;5019465;28;20248;-73
2023/09/03 03:07:17;;;;;;;16.27;11.37;;;;;14.90;101979.00;;;;5023583;28;20318;-74
2023/09/03 03:10:05;;;;;;;19.50;11.53;;;;;14.90;101979.00;;;;5018176;28;20252;-76
2023/09/03 03:12:51;;;;;;;17.27;11.03;;;;;14.90;101978.00;;;;5019202;28;20283;-73
2023/09/03 03:15:38;;;;;;;19.23;11.70;;;;;14.90;101979.00;;;;5021977;28;20251;-69
2023/09/03 03:18:24;;;;;;;21.73;12.63;;;;;14.90;101974.00;;;;5024176;28;20287;-69
2023/09/03 03:21:14;;;;;;;18.20;11.83;;;;;14.90;101974.00;;;;5021525;28;20255;-72
2023/09/03 03:24:00;;;;;;;22.57;11.50;;;;;14.80;101975.00;;;;5027226;28;20237;-71
2023/09/03 03:26:48;;;;;;;19.87;11.50;;;;;14.80;101972.00;;;;5023553;28;20302;-72
2023/09/03 03:29:34;;;;;;;18.77;11.57;;;;;14.80;101969.00;;;;5025858;28;20730;-73
2023/09/03 03:32:21;;;;;;;21.07;11.73;;;;;14.80;101987.00;;;;5023431;28;20231;-73
2023/09/03 03:35:08;;;;;;;18.30;11.70;;;;;14.80;101979.00;;;;5024056;28;20313;-71
2023/09/03 03:37:55;;;;;;;24.47;13.03;;;;;14.70;101998.00;;;;5021420;28;20240;-71
2023/09/03 03:40:41;;;;;;;17.30;11.50;;;;;14.70;102009.00;;;;5022107;28;20730;-73
2023/09/03 03:43:28;;;;;;;21.50;11.20;;;;;14.70;102014.00;;;;5024399;28;20287;-73
2023/09/03 03:46:17;;;;;;;20.23;12.13;;;;;14.70;102010.00;;;;5022841;28;20718;-71
2023/09/03 03:49:03;;;;;;;24.20;10.87;;;;;14.70;102020.00;;;;5025291;28;20251;-74
2023/09/03 03:51:49;;;;;;;18.87;11.13;;;;;14.60;102028.00;;;;5005563;28;20232;-68
2023/09/03 03:54:36;;;;;;;19.13;11.00;;;;;14.60;102026.00;;;;5018839;28;20371;-71
2023/09/03 03:57:22;;;;;;;19.60;11.47;;;;;14.60;102024.00;;;;5022195;28;20835;-74
2023/09/03 04:00:13;;;;;;;21.60;10.90;;;;;14.50;102041.00;;;;5019273;28;20394;-71
2023/09/03 04:02:59;;;;;;;17.40;11.30;;;;;14.50;102039.00;;;;5019469;28;20240;-75
2023/09/03 04:05:46;;;;;;;17.47;10.73;;;;;14.50;102037.00;;;;5019360;28;20311;-72
2023/09/03 04:08:36;;;;;;;17.77;11.20;;;;;14.40;102045.00;;;;5023494;28;20244;-73
2023/09/03 04:11:24;;;;;;;18.50;10.40;;;;;14.40;102048.00;;;;5023544;28;20233;-73
2023/09/03 04:14:10;;;;;;;19.83;11.07;;;;;14.30;102060.00;;;;5021545;28;20233;-71
2023/09/03 04:16:57;;;;;;;18.57;10.73;;;;;14.30;102058.00;;;;5024407;28;20224;-73
2023/09/03 04:19:47;;;;;;;19.17;11.33;;;;;14.30;102068.00;;;;5025602;28;20234;-72
2023/09/03 04:22:34;;;;;;;18.70;11.03;;;;;14.30;102069.00;;;;5022059;28;20234;-72
2023/09/03 04:25:20;;;;;;;17.73;11.07;;;;;14.30;102060.00;;;;5012195;28;20318;-75
2023/09/03 04:28:06;;;;;;;17.90;11.17;;;;;14.20;102079.00;;;;5017820;28;20225;-71
2023/09/03 04:30:54;;;;;;;19.43;11.10;;;;;14.20;102061.00;;;;5017327;28;20230;-72
2023/09/03 04:33:41;;;;;;;17.63;10.73;;;;;14.20;102067.00;;;;5018542;28;20238;-71
2023/09/03 04:36:28;;;;;;;21.00;11.07;;;;;14.20;102071.00;;;;5022634;28;20235;-71
2023/09/03 04:39:14;;;;;;;20.43;11.33;;;;;14.20;102071.00;;;;5020154;28;20361;-73
2023/09/03 04:42:00;;;;;;;19.07;11.53;;;;;14.10;102078.00;;;;5024104;28;20594;-71
2023/09/03 04:44:47;;;;;;;17.57;10.97;;;;;14.10;102068.00;;;;5024112;28;20225;-71
2023/09/03 04:47:33;;;;;;;18.00;11.03;;;;;14.00;102065.00;;;;5022049;28;20229;-72
2023/09/03 04:50:21;;;;;;;15.70;9.57;;;;;14.10;102060.00;;;;5025403;28;20256;-72
2023/09/03 04:53:07;;;;;;;19.57;10.77;;;;;14.10;102062.00;;;;5019088;28;20229;-70
2023/09/03 04:55:54;;;;;;;17.43;10.07;;;;;14.10;102066.00;;;;5016104;28;20736;-71
2023/09/03 04:58:40;;;;;;;17.47;10.17;;;;;14.00;102064.00;;;;5020908;28;20240;-72
2023/09/03 05:01:27;;;;;;;15.10;10.13;;;;;14.10;102071.00;;;;5017218;28;20238;-72
2023/09/03 05:04:14;;;;;;;22.97;11.07;;;;;14.00;102086.00;;;;5022255;28;20373;-72
2023/09/03 05:07:02;;;;;;;19.50;10.67;;;;;14.00;102081.00;;;;5022051;28;20238;-72
2023/09/03 05:09:52;;;;;;;17.90;10.47;;;;;14.00;102075.00;;;;5017826;28;20692;-74
2023/09/03 05:12:40;;;;;;;17.00;10.43;;;;;14.00;102088.00;;;;5020235;28;20234;-71
2023/09/03 05:15:27;;;;;;;18.77;10.50;;;;;14.00;102085.00;;;;5019668;28;20251;-72
2023/09/03 05:18:13;;;;;;;20.60;10.97;;;;;13.90;102096.00;;;;5015359;28;20241;-73
2023/09/03 05:20:59;;;;;;;19.07;11.17;;;;;14.00;102105.00;;;;5012775;28;20625;-72
2023/09/03 05:23:47;;;;;;;20.33;11.73;;;;;13.90;102101.00;;;;5018285;28;20233;-72
2023/09/03 05:26:34;;;;;;;18.33;11.13;;;;;13.90;102101.00;;;;5014892;28;20240;-72
2023/09/03 05:29:20;;;;;;;21.13;11.50;;;;;14.00;102114.00;;;;5022564;28;20696;-70
2023/09/03 05:32:07;;;;;;;20.03;11.47;;;;;14.00;102119.00;;;;5018470;28;20241;-71
2023/09/03 05:34:53;;;;;;;22.00;11.57;;;;;14.10;102128.00;;;;5023065;28;20225;-72
2023/09/03 05:37:40;;;;;;;23.73;12.63;;;;;14.10;102133.00;;;;5021284;28;20315;-72
2023/09/03 05:40:28;;;;;;;22.07;12.07;;;;;14.20;102131.00;;;;5013001;28;20321;-71
2023/09/03 05:43:14;;;;;;;21.60;11.67;;;;;14.20;102132.00;;;;5015212;28;20272;-73
2023/09/03 05:46:01;;;;;;;21.20;11.87;;;;;14.30;102132.00;;;;5012590;28;20241;-72
2023/09/03 05:48:50;;;;;;;21.77;11.87;;;;;14.30;102133.00;;;;5022707;28;20249;-71
2023/09/03 05:51:36;;;;;;;20.00;11.90;;;;;14.40;102134.00;;;;5022935;28;20305;-74
2023/09/03 05:54:22;;;;;;;19.43;11.60;;;;;14.50;102140.00;;;;5021699;28;20266;-71
2023/09/03 05:57:10;;;;;;;23.87;12.10;;;;;14.50;102147.00;;;;5018644;28;20285;-72
2023/09/03 05:59:56;;;;;;;21.67;11.80;;;;;14.60;102165.00;;;;5014640;28;20228;-72
2023/09/03 06:02:43;;;;;;;19.70;11.60;;;;;14.60;102162.00;;;;5023218;28;20247;-71
2023/09/03 06:05:29;;;;;;;21.43;11.67;;;;;14.60;102157.00;;;;5013564;28;20234;-72
2023/09/03 06:08:15;;;;;;;19.87;12.23;;;;;14.70;102164.00;;;;5025177;28;20229;-74
2023/09/03 06:11:02;;;;;;;20.67;12.40;;;;;14.80;102173.00;;;;5018204;28;20233;-71
2023/09/03 06:13:49;;;;;;;23.00;12.03;;;;;14.90;102180.00;;;;5003997;28;20237;-76
2023/09/03 06:16:36;;;;;;;23.53;12.70;;;;;14.90;102187.00;;;;5019084;28;20615;-73
2023/09/03 06:19:22;;;;;;;24.13;13.03;;;;;15.10;102190.00;;;;5015682;28;20231;-73
2023/09/03 06:22:09;;;;;;;23.47;12.53;;;;;15.10;102177.00;;;;5021719;28;20235;-73
2023/09/03 06:24:55;;;;;;;22.43;12.63;;;;;15.20;102196.00;;;;5021323;28;20239;-72
2023/09/03 06:27:42;;;;;;;21.57;12.47;;;;;15.30;102181.00;;;;5019956;28;20240;-73
2023/09/03 06:30:29;;;;;;;23.03;13.07;;;;;15.30;102196.00;;;;5014800;28;20722;-74
2023/09/03 06:33:16;;;;;;;23.90;13.57;;;;;15.40;102211.00;;;;5024578;28;20749;-74
2023/09/03 06:36:02;;;;;;;22.60;13.70;;;;;15.40;102216.00;;;;5011500;28;20227;-73
2023/09/03 06:38:48;;;;;;;24.20;14.70;;;;;15.50;102226.00;;;;5023096;28;20788;-74
2023/09/03 06:41:35;;;;;;;33.03;15.63;;;;;15.50;102238.00;;;;5012958;28;20721;-73
2023/09/03 06:44:23;;;;;;;26.13;14.60;;;;;15.60;102234.00;;;;5016487;28;20239;-71
2023/09/03 06:47:10;;;;;;;24.43;14.23;;;;;15.60;102243.00;;;;5016724;28;20236;-73
2023/09/03 06:49:56;;;;;;;24.87;14.40;;;;;15.80;102247.00;;;;5025170;28;20235;-73
2023/09/03 06:52:43;;;;;;;26.87;15.17;;;;;15.90;102246.00;;;;5027356;28;20229;-73
2023/09/03 06:55:29;;;;;;;24.23;14.53;;;;;15.90;102244.00;;;;5025003;28;20238;-75
2023/09/03 06:58:16;;;;;;;22.83;14.57;;;;;16.00;102251.00;;;;5026099;28;20354;-72
2023/09/03 07:01:04;;;;;;;22.40;14.63;;;;;16.10;102252.00;;;;5024367;28;20319;-72
2023/09/03 07:03:51;;;;;;;22.00;13.87;;;;;16.20;102240.00;;;;5026708;28;20229;-73
2023/09/03 07:06:37;;;;;;;23.60;14.63;;;;;16.20;102257.00;;;;5025467;28;20245;-73
2023/09/03 07:09:28;;;;;;;26.00;14.10;;;;;16.30;102256.00;;;;5028073;28;20359;-73
2023/09/03 07:12:15;;;;;;;22.83;13.77;;;;;16.30;102251.00;;;;5017194;28;20354;-73
2023/09/03 07:15:01;;;;;;;21.20;13.50;;;;;16.40;102245.00;;;;5025089;28;20229;-73
2023/09/03 07:17:47;;;;;;;22.70;13.60;;;;;16.40;102253.00;;;;5014814;28;20233;-73
2023/09/03 07:20:35;;;;;;;22.23;13.37;;;;;16.50;102259.00;;;;5024655;28;20221;-75
2023/09/03 07:23:22;;;;;;;25.33;13.70;;;;;16.50;102267.00;;;;5021078;28;20246;-74
2023/09/03 07:26:09;;;;;;;21.37;12.90;;;;;16.60;102279.00;;;;5014369;28;20225;-73
2023/09/03 07:28:55;;;;;;;23.53;13.80;;;;;16.70;102268.00;;;;5023661;28;20606;-73
2023/09/03 07:31:43;;;;;;;19.07;12.30;;;;;16.80;102274.00;;;;5026576;28;20241;-76
2023/09/03 07:34:29;;;;;;;24.87;13.27;;;;;16.80;102277.00;;;;5047014;28;20229;-72
2023/09/03 07:37:17;;;;;;;23.67;13.33;;;;;16.90;102274.00;;;;5047214;28;20237;-74
2023/09/03 07:40:08;;;;;;;21.63;13.00;;;;;17.00;102276.00;;;;5043833;28;20458;-74
2023/09/03 07:42:54;;;;;;;20.27;12.47;;;;;17.10;102278.00;;;;5047805;28;20233;-74
2023/09/03 07:45:41;;;;;;;20.10;12.43;;;;;17.10;102279.00;;;;5046669;28;20240;-73
2023/09/03 07:48:27;;;;;;;19.57;12.50;;;;;17.20;102283.00;;;;5046429;28;20302;-73
2023/09/03 07:51:15;;;;;;;22.43;12.77;;;;;17.30;102286.00;;;;5044689;28;20218;-76
2023/09/03 07:54:03;;;;;;;21.40;13.17;;;;;17.40;102273.00;;;;5039496;28;20226;-73
2023/09/03 07:56:49;;;;;;;22.83;13.30;;;;;17.50;102281.00;;;;5020060;28;20237;-73
2023/09/03 07:59:36;;;;;;;25.00;13.07;;;;;17.50;102279.00;;;;5026487;28;20780;-73
2023/09/03 08:02:23;;;;;;;21.67;13.03;;;;;17.60;102276.00;;;;5019569;28;20292;-73
2023/09/03 08:05:11;;;;;;;17.47;12.40;;;;;17.70;102282.00;;;;5027891;28;20233;-74
2023/09/03 08:07:57;;;;;;;19.77;12.43;;;;;17.80;102280.00;;;;5027237;28;20233;-73
2023/09/03 08:10:45;;;;;;;18.50;12.00;;;;;17.80;102286.00;;;;5024430;28;20365;-72
2023/09/03 08:13:32;;;;;;;16.80;11.17;;;;;17.80;102279.00;;;;5021591;28;20303;-70
2023/09/03 08:16:18;;;;;;;16.80;10.83;;;;;17.90;102274.00;;;;5025127;28;20237;-73
2023/09/03 08:19:05;;;;;;;19.00;11.13;;;;;17.90;102272.00;;;;5023974;28;20716;-73
2023/09/03 08:21:51;;;;;;;17.20;11.07;;;;;18.10;102270.00;;;;5011886;28;20639;-71
2023/09/03 08:24:37;;;;;;;16.47;10.60;;;;;18.10;102281.00;;;;5026503;28;20817;-72
2023/09/03 08:27:25;;;;;;;18.07;9.83;;;;;18.10;102282.00;;;;5018530;28;20241;-73
2023/09/03 08:30:12;;;;;;;15.80;9.53;;;;;18.30;102277.00;;;;5020411;28;20240;-72
2023/09/03 08:32:58;;;;;;;13.43;9.37;;;;;18.30;102270.00;;;;5026390;28;20257;-72
2023/09/03 08:35:45;;;;;;;15.43;9.37;;;;;18.40;102274.00;;;;5020796;28;20275;-72
2023/09/03 08:38:31;;;;;;;19.93;10.53;;;;;18.50;102274.00;;;;5017608;28;20317;-73
2023/09/03 08:41:19;;;;;;;13.97;10.43;;;;;18.50;102275.00;;;;5013422;28;21403;-72
2023/09/03 08:44:18;;;;;;;15.13;10.10;;;;;18.60;102271.00;;;;5020702;28;20311;-70
2023/09/03 08:47:09;;;;;;;11.20;7.53;;;;;18.80;102271.00;;;;5022377;28;20233;-71
2023/09/03 08:49:56;;;;;;;11.70;7.60;;;;;18.90;102268.00;;;;5025707;28;20238;-68
2023/09/03 08:52:43;;;;;;;13.13;7.77;;;;;19.00;102263.00;;;;5022140;28;20280;-72
2023/09/03 08:55:32;;;;;;;18.30;7.53;;;;;19.20;102256.00;;;;5011586;28;20781;-72
2023/09/03 08:58:18;;;;;;;6.53;5.23;;;;;19.40;102265.00;;;;5019779;28;20341;-71
2023/09/03 09:01:08;;;;;;;7.67;5.73;;;;;19.40;102263.00;;;;5013009;28;20245;-71
2023/09/03 09:03:57;;;;;;;7.60;5.60;;;;;19.50;102271.00;;;;5020537;28;20233;-72
2023/09/03 09:06:46;;;;;;;13.10;6.07;;;;;19.60;102275.00;;;;5019854;28;20347;-71
2023/09/03 09:09:34;;;;;;;5.83;3.93;;;;;19.60;102272.00;;;;5015613;28;20248;-72
2023/09/03 09:12:27;;;;;;;6.90;3.70;;;;;19.80;102275.00;;;;5021416;28;20721;-71
2023/09/03 09:15:13;;;;;;;6.43;4.30;;;;;20.00;102285.00;;;;5018737;28;20373;-72
2023/09/03 09:18:01;;;;;;;7.40;4.23;;;;;20.10;102289.00;;;;5017343;28;20317;-72
2023/09/03 09:20:53;;;;;;;6.13;4.23;;;;;20.10;102297.00;;;;5023812;28;20234;-71
2023/09/03 09:23:41;;;;;;;8.23;4.40;;;;;20.20;102296.00;;;;5012091;28;20339;-71
2023/09/03 09:26:31;;;;;;;8.97;5.13;;;;;20.30;102299.00;;;;5024574;28;20827;-71
2023/09/03 09:29:21;;;;;;;6.03;5.23;;;;;20.30;102301.00;;;;5015948;28;20290;-71
2023/09/03 09:32:18;;;;;;;7.67;5.03;;;;;20.40;102296.00;;;;5014306;28;20318;-71
2023/09/03 09:35:07;;;;;;;7.60;4.97;;;;;20.50;102286.00;;;;5024949;28;20228;-71
2023/09/03 09:37:54;;;;;;;8.17;5.40;;;;;20.60;102289.00;;;;5023527;28;20313;-71
2023/09/03 09:40:40;;;;;;;7.90;4.80;;;;;20.70;102286.00;;;;5016321;28;20306;-68
2023/09/03 09:43:45;;;;;;;8.67;5.17;;;;;20.80;102293.00;;;;5018827;28;20246;-69
2023/09/03 09:46:33;;;;;;;6.80;4.63;;;;;20.90;102290.00;;;;5020863;28;20782;-69
2023/09/03 09:49:20;;;;;;;12.43;5.30;;;;;20.90;102288.00;;;;5014707;28;20379;-69
2023/09/03 09:52:08;;;;;;;7.33;5.10;;;;;21.10;102298.00;;;;5018870;28;20762;-70
2023/09/03 09:54:54;;;;;;;11.20;6.80;;;;;21.20;102301.00;;;;5021342;28;20602;-70
2023/09/03 09:57:40;;;;;;;9.90;5.57;;;;;21.20;102298.00;;;;5017488;28;20229;-70
2023/09/03 10:00:34;;;;;;;6.23;4.87;;;;;21.20;102289.00;;;;5019911;28;20649;-72
2023/09/03 10:03:20;;;;;;;6.23;4.93;;;;;21.40;102292.00;;;;5015858;28;20730;-71
2023/09/03 10:06:07;;;;;;;5.23;4.70;;;;;21.40;102294.00;;;;5013371;28;20310;-70
2023/09/03 10:08:55;;;;;;;5.63;3.87;;;;;21.40;102291.00;;;;5019779;28;20689;-70
2023/09/03 10:11:41;;;;;;;5.57;4.07;;;;;21.60;102298.00;;;;5022389;28;20311;-76
2023/09/03 10:14:27;;;;;;;8.30;4.50;;;;;21.80;102291.00;;;;5020342;28;20317;-75
2023/09/03 10:17:14;;;;;;;6.37;3.77;;;;;21.90;102298.00;;;;5022155;28;20229;-75
2023/09/03 10:20:04;;;;;;;5.77;3.60;;;;;22.10;102298.00;;;;5021764;28;20365;-75
2023/09/03 10:22:51;;;;;;;5.93;3.47;;;;;21.90;102301.00;;;;5020668;28;20228;-76
2023/09/03 10:25:40;;;;;;;5.03;3.03;;;;;22.10;102293.00;;;;5016209;28;20225;-73
2023/09/03 10:28:29;;;;;;;3.63;3.20;;;;;22.30;102303.00;;;;5018935;28;22007;-72
2023/09/03 10:31:17;;;;;;;4.07;2.80;;;;;22.50;102311.00;;;;5016737;28;20741;-74
2023/09/03 10:34:08;;;;;;;4.47;2.70;;;;;22.60;102311.00;;;;5024304;28;20222;-72
2023/09/03 10:37:03;;;;;;;2.87;2.43;;;;;22.60;102317.00;;;;5015727;28;20230;-73
2023/09/03 10:39:49;;;;;;;4.30;3.13;;;;;22.60;102319.00;;;;5022844;28;20369;-72
2023/09/03 10:42:37;;;;;;;3.53;2.70;;;;;22.60;102313.00;;;;5019185;28;20236;-76
2023/09/03 10:45:24;;;;;;;5.47;2.37;;;;;22.70;102306.00;;;;5023087;28;20233;-75
2023/09/03 10:48:17;;;;;;;3.97;2.60;;;;;22.80;102301.00;;;;5019931;28;20230;-75
2023/09/03 10:51:04;;;;;;;3.93;2.73;;;;;23.00;102303.00;;;;5023449;28;20225;-74
2023/09/03 10:53:51;;;;;;;2.43;2.23;;;;;23.00;102301.00;;;;5023407;28;20237;-75
2023/09/03 10:57:16;;;;;;;2.63;2.10;;;;;23.00;102299.00;;;;5020972;28;20237;-78
2023/09/03 11:00:15;;;;;;;2.57;2.37;;;;;23.20;102305.00;;;;5019244;28;20907;-75
2023/09/03 11:03:16;;;;;;;3.47;2.50;;;;;23.30;102303.00;;;;5016990;28;20229;-73
2023/09/03 11:06:17;;;;;;;3.17;2.37;;;;;23.30;102302.00;;;;5021154;28;20229;-77
2023/09/03 11:09:22;;;;;;;5.87;2.40;;;;;23.40;102297.00;;;;5019438;28;20230;-77
2023/09/03 11:12:10;;;;;;;2.50;2.30;;;;;23.50;102295.00;;;;5017369;28;20230;-75
2023/09/03 11:14:57;;;;;;;2.80;2.20;;;;;23.70;102296.00;;;;5019788;28;20233;-76
2023/09/03 11:17:50;;;;;;;2.57;2.37;;;;;24.00;102293.00;;;;5015012;28;20230;-74
2023/09/03 11:20:37;;;;;;;4.07;2.43;;;;;24.10;102294.00;;;;5015527;28;20338;-75
2023/09/03 11:23:29;;;;;;;3.17;2.23;;;;;24.30;102296.00;;;;5018018;28;20227;-73
2023/09/03 11:26:20;;;;;;;4.00;2.30;;;;;24.40;102293.00;;;;5013166;28;20230;-77
2023/09/03 11:29:19;;;;;;;3.37;2.20;;;;;24.30;102293.00;;;;5016887;28;20237;-74
2023/09/03 11:32:06;;;;;;;4.85;3.08;;;;;24.50;102304.00;;;;5019254;28;21031;-75
2023/09/03 11:35:00;;;;;;;4.47;3.00;;;;;24.30;102295.00;;;;5021369;28;20237;-74
2023/09/03 11:37:47;;;;;;;5.60;2.63;;;;;24.50;102311.00;;;;5025133;28;20320;-77
2023/09/03 11:40:33;;;;;;;4.20;2.37;;;;;24.50;102304.00;;;;5026959;28;20339;-75
2023/09/03 11:43:21;;;;;;;5.50;2.40;;;;;24.40;102299.00;;;;5020411;28;20232;-78
2023/09/03 11:46:13;;;;;;;4.07;2.33;;;;;24.50;102304.00;;;;5018921;28;20225;-74
2023/09/03 11:49:03;;;;;;;3.97;2.53;;;;;24.30;102309.00;;;;5022419;28;20237;-76
2023/09/03 11:51:52;;;;;;;3.60;2.27;;;;;24.30;102302.00;;;;5016370;28;20238;-75
2023/09/03 11:54:38;;;;;;;4.18;2.42;;;;;24.40;102301.00;;;;5022742;28;20252;-78
2023/09/03 11:57:25;;;;;;;3.15;2.38;;;;;24.40;102292.00;;;;5026115;28;20237;-74
2023/09/03 12:00:13;;;;;;;3.40;2.60;;;;;24.50;102298.00;;;;5019472;28;20233;-77
2023/09/03 12:03:00;;;;;;;3.20;2.37;;;;;24.50;102304.00;;;;5019368;28;20280;-74
2023/09/03 12:05:47;;;;;;;2.73;2.20;;;;;24.30;102304.00;;;;5022367;28;20273;-75
2023/09/03 12:08:35;;;;;;;2.67;2.10;;;;;24.20;102302.00;;;;5020882;28;20761;-74
2023/09/03 12:11:29;;;;;;;3.27;2.50;;;;;24.30;102301.00;;;;5020969;28;20236;-76
2023/09/03 12:14:28;;;;;;;5.93;2.40;;;;;24.20;102301.00;;;;5019358;28;20288;-76
2023/09/03 12:17:22;;;;;;;3.37;2.37;;;;;24.30;102301.00;;;;5019085;28;20707;-77
2023/09/03 12:20:10;;;;;;;3.17;2.40;;;;;24.40;102294.00;;;;5022484;28;20303;-76
2023/09/03 12:22:56;;;;;;;2.50;2.30;;;;;24.40;102304.00;;;;5025718;28;20303;-78
2023/09/03 12:25:44;;;;;;;2.87;2.13;;;;;24.60;102300.00;;;;5025225;28;20268;-76
2023/09/03 12:28:35;;;;;;;4.30;2.35;;;;;24.80;102304.00;;;;5015038;28;20296;-73
2023/09/03 12:31:22;;;;;;;2.20;2.00;;;;;24.80;102305.00;;;;5021230;28;20237;-76
2023/09/03 12:34:09;;;;;;;2.17;1.97;;;;;24.80;102311.00;;;;5024142;28;20241;-73
2023/09/03 12:36:56;;;;;;;3.27;1.87;;;;;25.00;102309.00;;;;5020767;28;20237;-73
2023/09/03 12:39:43;;;;;;;3.47;1.98;;;;;24.90;102314.00;;;;5026325;28;20265;-74
2023/09/03 12:42:31;;;;;;;2.00;1.80;;;;;24.80;102310.00;;;;5021359;28;20240;-72
2023/09/03 12:45:17;;;;;;;4.22;1.73;;;;;24.70;102307.00;;;;5013528;28;20245;-72
2023/09/03 12:48:04;;;;;;;2.92;1.80;;;;;24.70;102301.00;;;;5017831;28;20246;-71
2023/09/03 12:50:50;;;;;;;3.33;1.60;;;;;24.70;102314.00;;;;5020949;28;20286;-72
2023/09/03 12:53:37;;;;;;;2.95;1.60;;;;;24.60;102315.00;;;;5021272;28;20596;-73
2023/09/03 12:56:24;;;;;;;2.17;1.50;;;;;24.50;102310.00;;;;5021008;28;20730;-74
2023/09/03 12:59:12;;;;;;;1.88;1.55;;;;;24.50;102304.00;;;;5019142;28;20303;-72
2023/09/03 13:01:58;;;;;;;2.30;1.67;;;;;24.60;102305.00;;;;5022994;28;20246;-73
2023/09/03 13:04:44;;;;;;;1.73;1.63;;;;;24.60;102305.00;;;;5022538;28;21095;-75
2023/09/03 13:07:31;;;;;;;1.77;1.60;;;;;24.60;102305.00;;;;5024396;28;20304;-74
2023/09/03 13:10:17;;;;;;;2.08;1.88;;;;;24.60;102303.00;;;;5019861;28;20308;-75
2023/09/03 13:13:04;;;;;;;2.67;1.95;;;;;24.60;102303.00;;;;5025650;28;20604;-75
2023/09/03 13:15:52;;;;;;;2.00;1.80;;;;;24.70;102301.00;;;;5023078;28;20299;-75
2023/09/03 13:18:38;;;;;;;1.83;1.73;;;;;24.60;102301.00;;;;5023596;28;20238;-76
2023/09/03 13:21:25;;;;;;;3.13;1.95;;;;;24.70;102293.00;;;;5015115;28;20232;-74
2023/09/03 13:24:11;;;;;;;2.13;1.92;;;;;24.80;102289.00;;;;5021214;28;20221;-74
2023/09/03 13:26:57;;;;;;;2.17;1.98;;;;;24.90;102286.00;;;;5022515;28;20260;-76
2023/09/03 13:29:44;;;;;;;2.38;1.80;;;;;24.90;102290.00;;;;5022054;28;20601;-75
2023/09/03 13:32:32;;;;;;;3.72;1.80;;;;;24.80;102285.00;;;;5019565;28;20239;-75
2023/09/03 13:35:18;;;;;;;2.10;1.85;;;;;25.00;102289.00;;;;5022488;28;20250;-75
2023/09/03 13:38:06;;;;;;;2.03;1.70;;;;;25.10;102288.00;;;;5026060;28;20230;-76